Time;durP1;ratioP1;P1;durP2;ratioP2;P2;SDS_P1;SDS_P2;PMS_P1;PMS_P2;Temp;Humidity;BMP_temperature;BMP_pressure;BME280_temperature;BME280_humidity;BME280_pressure;Samples;Min_cycle;Max_cycle;Signal;HPM_P1;HPM_P2
2022/05/23 00:00:47;;;;;;;4.37;2.10;;;;;;;12.58;81.33;101317.91;5031979;28;20198;-74
2022/05/23 00:03:12;;;;;;;4.97;2.27;;;;;;;12.52;81.62;101323.78;5031922;28;20213;-74
2022/05/23 00:05:39;;;;;;;4.03;2.30;;;;;;;12.56;81.34;101322.13;5030178;28;20210;-76
2022/05/23 00:08:05;;;;;;;5.47;2.30;;;;;;;12.49;81.89;101321.13;5031889;28;20187;-73
2022/05/23 00:10:30;;;;;;;4.00;2.00;;;;;;;12.44;81.67;101315.03;5031897;28;20201;-74
2022/05/23 00:12:55;;;;;;;4.53;2.13;;;;;;;12.35;81.69;101320.00;5031536;28;20196;-74
2022/05/23 00:15:21;;;;;;;4.67;2.30;;;;;;;12.30;82.03;101311.34;5030842;28;20508;-74
2022/05/23 00:17:46;;;;;;;3.17;2.10;;;;;;;12.26;81.89;101316.41;5031664;28;20607;-74
2022/05/23 00:20:14;;;;;;;5.47;2.40;;;;;;;12.21;82.22;101311.16;5026811;28;20189;-74
2022/05/23 00:22:40;;;;;;;5.53;2.80;;;;;;;12.20;82.24;101308.56;5029949;28;20197;-74
2022/05/23 00:25:07;;;;;;;3.97;1.97;;;;;;;12.11;82.44;101310.94;5031707;28;20194;-73
2022/05/23 00:27:37;;;;;;;2.93;2.20;;;;;;;12.12;83.05;101310.97;5031311;28;20190;-74
2022/05/23 00:30:07;;;;;;;4.67;2.40;;;;;;;12.04;82.85;101314.22;5024533;28;20214;-74
2022/05/23 00:35:20;;;;;;;4.47;2.17;;;;;;;11.93;82.67;101302.88;5034223;28;20198;-74
2022/05/23 00:37:49;;;;;;;4.33;2.40;;;;;;;11.88;82.71;101315.59;5037278;28;20236;-74
2022/05/23 00:40:35;;;;;;;4.07;2.27;;;;;;;11.82;83.18;101305.22;5036651;28;20204;-74
2022/05/23 00:43:13;;;;;;;4.27;2.40;;;;;;;11.74;83.83;101305.84;5039686;28;20189;-73
2022/05/23 00:45:40;;;;;;;7.27;2.40;;;;;;;11.75;83.97;101297.34;5034489;28;20493;-74
2022/05/23 00:48:06;;;;;;;5.80;2.80;;;;;;;11.70;84.18;101310.06;5041748;28;20205;-74
2022/05/23 00:50:34;;;;;;;4.57;2.47;;;;;;;11.68;83.98;101305.72;5032238;28;22112;-74
2022/05/23 00:53:01;;;;;;;4.17;2.30;;;;;;;11.60;83.48;101305.56;5027257;28;20221;-74
2022/05/23 00:55:31;;;;;;;4.10;2.30;;;;;;;11.58;83.55;101299.50;5029086;28;21002;-74
2022/05/23 00:58:03;;;;;;;5.00;2.17;;;;;;;11.56;83.15;101296.03;5035408;28;20194;-73
2022/05/23 01:00:28;;;;;;;5.60;2.53;;;;;;;11.47;83.55;101285.56;5038185;28;20245;-74
2022/05/23 01:03:00;;;;;;;4.47;2.40;;;;;;;11.40;83.56;101288.84;5032454;28;20206;-74
2022/05/23 01:05:26;;;;;;;4.63;2.30;;;;;;;11.37;83.73;101286.19;5036148;28;20212;-74
2022/05/23 01:07:53;;;;;;;3.03;2.10;;;;;;;11.39;84.33;101283.66;5018490;28;20182;-74
2022/05/23 01:10:18;;;;;;;3.83;2.23;;;;;;;11.28;84.48;101285.97;5034956;28;20218;-74
2022/05/23 01:12:47;;;;;;;2.87;2.50;;;;;;;11.28;84.66;101282.53;5034581;28;20186;-74
2022/05/23 01:15:26;;;;;;;5.43;2.23;;;;;;;11.11;85.04;101281.28;5035646;28;20269;-74
2022/05/23 01:17:52;;;;;;;4.47;2.50;;;;;;;11.11;84.69;101273.59;5038340;28;20181;-73
2022/05/23 01:20:18;;;;;;;4.23;2.50;;;;;;;10.98;85.14;101277.56;5033827;28;20186;-74
2022/05/23 01:23:05;;;;;;;2.90;2.30;;;;;;;10.90;85.62;101271.38;5047335;28;20263;-74
2022/05/23 01:25:46;;;;;;;4.80;2.10;;;;;;;10.98;85.39;101271.56;5038190;28;20276;-74
2022/05/23 01:28:24;;;;;;;5.33;2.43;;;;;;;10.99;85.62;101263.91;5031881;28;20221;-74
2022/05/23 01:30:50;;;;;;;3.47;2.60;;;;;;;11.03;85.00;101265.72;5031166;28;20240;-74
2022/05/23 01:33:23;;;;;;;4.63;2.87;;;;;;;11.04;86.12;101272.59;5030337;28;20183;-74
2022/05/23 01:35:49;;;;;;;6.43;2.83;;;;;;;10.98;86.16;101261.31;5036235;28;20213;-74
2022/05/23 01:38:14;;;;;;;3.87;2.77;;;;;;;10.98;85.83;101262.19;5012323;28;20183;-74
2022/05/23 01:40:55;;;;;;;5.50;3.00;;;;;;;11.00;86.14;101245.16;5034656;28;20671;-74
2022/05/23 01:43:23;;;;;;;6.70;3.00;;;;;;;11.02;86.92;101248.59;5040980;28;20181;-74
2022/05/23 01:46:09;;;;;;;4.13;2.80;;;;;;;11.02;86.28;101243.47;5032043;28;20283;-74
2022/05/23 01:48:48;;;;;;;5.87;2.97;;;;;;;10.97;86.60;101241.66;5025151;28;20334;-74
2022/05/23 01:51:13;;;;;;;6.00;3.10;;;;;;;10.94;86.91;101245.00;5034306;28;20198;-74
2022/05/23 01:53:39;;;;;;;4.30;3.13;;;;;;;10.90;86.89;101243.19;5014736;28;20198;-73
2022/05/23 01:56:06;;;;;;;6.30;3.10;;;;;;;10.80;86.82;101225.88;5030042;28;20218;-74
2022/05/23 02:01:37;;;;;;;6.47;2.90;;;;;;;10.78;86.32;101232.63;5031250;28;20190;-74
2022/05/23 02:04:03;;;;;;;4.00;2.80;;;;;;;10.73;86.66;101230.81;5038914;28;20194;-74
2022/05/23 02:06:42;;;;;;;5.67;2.90;;;;;;;10.68;86.18;101235.81;5034160;28;20208;-74
2022/05/23 02:09:26;;;;;;;7.63;2.90;;;;;;;10.66;86.24;101232.34;5018526;28;20182;-74
2022/05/23 02:11:59;;;;;;;5.00;2.83;;;;;;;10.66;86.37;101228.91;5026067;28;20252;-74
2022/05/23 02:14:27;;;;;;;5.23;3.10;;;;;;;10.69;87.03;101226.44;5036913;28;20713;-74
2022/05/23 02:16:53;;;;;;;6.30;3.70;;;;;;;10.70;87.12;101221.31;5037190;28;20240;-74
2022/05/23 02:19:23;;;;;;;6.50;3.40;;;;;;;10.72;87.77;101216.25;5022594;28;20186;-74
2022/05/23 02:21:56;;;;;;;4.53;3.23;;;;;;;10.68;88.24;101219.56;5040674;28;20194;-74
2022/05/23 02:24:21;;;;;;;6.03;3.13;;;;;;;10.70;87.88;101211.09;5040157;28;20685;-74
2022/05/23 02:26:47;;;;;;;5.20;2.97;;;;;;;10.71;87.23;101204.28;5032190;28;20248;-74
2022/05/23 02:29:28;;;;;;;5.77;3.27;;;;;;;10.72;87.15;101196.63;5032697;28;20193;-74
2022/05/23 02:31:53;;;;;;;4.67;2.87;;;;;;;10.69;87.61;101195.72;5033357;28;20202;-74
2022/05/23 02:34:19;;;;;;;3.80;2.90;;;;;;;10.76;87.53;101184.75;5029463;28;20189;-74
2022/05/23 02:36:48;;;;;;;6.57;3.37;;;;;;;10.76;88.11;101183.09;5020435;28;20206;-74
2022/05/23 02:39:16;;;;;;;8.23;3.40;;;;;;;10.77;87.72;101181.38;5040511;28;20208;-74
2022/05/23 02:41:46;;;;;;;7.10;3.20;;;;;;;10.77;88.39;101184.81;5035150;28;20268;-74
2022/05/23 02:44:15;;;;;;;4.63;2.90;;;;;;;10.83;88.52;101179.81;5041747;28;20193;-74
2022/05/23 02:46:40;;;;;;;7.30;3.30;;;;;;;10.87;88.24;101184.19;5046992;28;20201;-74
2022/05/23 02:49:13;;;;;;;8.80;3.60;;;;;;;10.91;88.38;101174.88;5038826;28;20578;-74
2022/05/23 02:51:42;;;;;;;8.53;3.20;;;;;;;10.93;88.21;101179.19;5027815;28;20182;-74
2022/05/23 02:54:10;;;;;;;4.83;3.20;;;;;;;10.96;88.36;101178.44;5033688;28;20193;-74
2022/05/23 02:56:36;;;;;;;5.60;3.70;;;;;;;10.99;88.48;101179.34;5035306;28;20253;-74
2022/05/23 02:59:03;;;;;;;7.53;3.20;;;;;;;11.05;88.25;101174.38;5025824;28;20178;-74
2022/05/23 03:01:29;;;;;;;5.10;3.10;;;;;;;11.07;88.02;101177.81;5017683;28;20949;-74
2022/05/23 03:03:54;;;;;;;4.17;3.20;;;;;;;11.08;87.78;101173.56;5042677;28;20194;-74
2022/05/23 03:06:20;;;;;;;6.33;3.47;;;;;;;11.09;88.29;101172.72;5031613;28;20258;-74
2022/05/23 03:08:45;;;;;;;8.07;3.60;;;;;;;11.12;88.18;101173.69;5044393;28;20212;-74
2022/05/23 03:11:12;;;;;;;3.40;3.10;;;;;;;11.11;87.97;101174.50;5039973;28;20236;-74
2022/05/23 03:13:38;;;;;;;5.20;3.60;;;;;;;11.11;88.38;101177.06;5034272;28;20555;-74
2022/05/23 03:16:12;;;;;;;4.90;3.47;;;;;;;11.11;88.16;101160.84;5045496;28;20202;-74
2022/05/23 03:18:40;;;;;;;7.13;3.80;;;;;;;11.11;88.11;101148.03;5038045;28;20234;-73
2022/05/23 03:21:11;;;;;;;6.97;3.67;;;;;;;11.08;88.05;101147.94;5035684;28;20186;-74
2022/05/23 03:29:12;;;;;;;7.80;3.70;;;;;;;11.06;87.66;101160.72;5034325;28;20186;-74
2022/05/23 03:31:38;;;;;;;4.67;3.30;;;;;;;11.06;87.36;101160.72;5037029;28;20569;-74
2022/05/23 03:34:06;;;;;;;4.93;3.60;;;;;;;11.07;86.96;101159.03;5030287;28;20277;-73
2022/05/23 03:36:32;;;;;;;6.73;3.80;;;;;;;11.05;86.32;101159.00;5022747;28;20344;-74
2022/05/23 03:38:57;;;;;;;5.87;3.97;;;;;;;11.03;86.94;101159.78;5031858;28;20240;-73
2022/05/23 03:41:23;;;;;;;6.80;3.87;;;;;;;11.06;86.78;101158.16;5043441;28;20240;-74
2022/05/23 03:43:50;;;;;;;4.40;3.40;;;;;;;11.09;86.29;101149.66;5028785;28;20190;-74
2022/05/23 03:46:15;;;;;;;7.87;3.23;;;;;;;11.13;85.28;101151.47;5035038;28;20207;-74
2022/05/23 03:48:41;;;;;;;8.40;3.80;;;;;;;11.16;85.52;101165.22;5041007;28;20197;-74
2022/05/23 03:51:07;;;;;;;5.27;3.30;;;;;;;11.15;85.22;101154.94;5022711;28;20279;-74
2022/05/23 03:53:33;;;;;;;6.97;3.20;;;;;;;11.20;84.98;101156.75;5041412;28;20186;-74
2022/05/23 03:56:04;;;;;;;5.27;3.50;;;;;;;11.23;85.42;101151.69;5043709;28;20212;-73
2022/05/23 03:58:34;;;;;;;4.93;3.23;;;;;;;11.26;85.24;101149.22;5045498;28;20194;-74
2022/05/23 04:01:30;;;;;;;6.23;3.73;;;;;;;11.30;85.02;101153.56;5044188;28;20198;-74
2022/05/23 04:03:58;;;;;;;6.47;3.33;;;;;;;11.35;85.04;101151.97;5022937;28;20197;-74
2022/05/23 04:06:26;;;;;;;3.73;2.87;;;;;;;11.38;84.73;101151.19;5047732;28;20201;-73
2022/05/23 04:09:04;;;;;;;5.77;2.90;;;;;;;11.43;84.52;101157.25;5044224;28;20225;-74
2022/05/23 04:11:30;;;;;;;6.93;3.33;;;;;;;11.47;84.54;101152.22;5041389;28;20194;-74
2022/05/23 04:13:57;;;;;;;4.57;3.40;;;;;;;11.46;84.65;101147.94;5053487;28;20247;-73
2022/05/23 04:16:27;;;;;;;6.13;3.50;;;;;;;11.49;84.67;101145.44;5038126;28;20214;-74
2022/05/23 04:18:52;;;;;;;6.87;3.60;;;;;;;11.51;84.53;101142.88;5030731;28;20273;-74
2022/05/23 04:21:18;;;;;;;5.43;3.27;;;;;;;11.49;84.82;101145.44;5030877;28;20285;-73
2022/05/23 04:23:46;;;;;;;6.83;3.37;;;;;;;11.52;84.65;101142.06;5030432;28;20232;-74
2022/05/23 04:26:12;;;;;;;4.53;2.77;;;;;;;11.56;83.67;101138.72;5030727;28;20221;-74
2022/05/23 04:28:41;;;;;;;6.60;3.13;;;;;;;11.54;84.33;101130.13;5029750;28;20652;-74
2022/05/23 04:31:08;;;;;;;7.00;3.13;;;;;;;11.57;83.78;101125.06;5030916;28;20521;-74
2022/05/23 04:36:35;;;;;;;3.47;2.60;;;;;;;11.65;82.83;101120.97;5030571;28;20719;-73
2022/05/23 04:39:00;;;;;;;4.67;2.93;;;;;;;11.71;81.92;101115.97;5029964;28;20206;-73
2022/05/23 04:41:27;;;;;;;3.37;2.60;;;;;;;11.80;81.03;101116.16;5030449;28;20205;-73
2022/05/23 04:43:56;;;;;;;5.13;2.43;;;;;;;11.85;79.62;101114.53;5014248;28;20186;-74
2022/05/23 04:46:24;;;;;;;4.03;2.63;;;;;;;11.87;79.36;101116.28;5019478;28;20576;-73
2022/05/23 04:52:15;;;;;;;4.07;2.57;;;;;;;12.06;80.08;101108.06;5010423;28;20191;-73
2022/05/23 04:54:42;;;;;;;5.40;2.37;;;;;;;12.17;78.68;101098.00;5010475;28;20191;-73
2022/05/23 04:57:10;;;;;;;3.70;2.73;;;;;;;12.30;77.93;101100.78;5009890;28;20226;-73
2022/05/23 04:59:36;;;;;;;3.77;2.30;;;;;;;12.41;78.07;101100.97;5010318;28;20198;-74
2022/05/23 05:02:03;;;;;;;4.07;2.20;;;;;;;12.57;77.80;101095.22;4994050;28;20525;-74
2022/05/23 05:04:30;;;;;;;2.73;2.20;;;;;;;12.63;76.20;101083.31;5024288;28;20200;-74
2022/05/23 05:06:55;;;;;;;4.00;2.30;;;;;;;12.73;76.09;101089.47;5033277;28;20200;-74
2022/05/23 05:09:22;;;;;;;3.33;2.13;;;;;;;12.87;76.30;101080.25;5029807;28;20195;-73
2022/05/23 05:11:57;;;;;;;5.10;2.37;;;;;;;12.94;74.96;101070.06;5030003;28;20174;-73
2022/05/23 05:14:27;;;;;;;4.03;2.20;;;;;;;13.15;74.15;101071.22;5030064;28;20182;-74
2022/05/23 05:16:54;;;;;;;6.10;2.40;;;;;;;13.19;72.90;101063.56;5029437;28;20222;-75
2022/05/23 05:19:20;;;;;;;5.60;2.33;;;;;;;13.42;72.89;101058.69;5035634;28;20549;-75
2022/05/23 05:21:51;;;;;;;5.57;2.67;;;;;;;13.48;72.07;101049.34;5051621;28;20189;-74
2022/05/23 05:24:35;;;;;;;4.00;2.20;;;;;;;13.75;71.87;101036.75;5049875;28;20205;-74
2022/05/23 05:27:16;;;;;;;2.83;1.90;;;;;;;13.76;71.08;101029.91;5049162;28;20202;-74
2022/05/23 05:29:42;;;;;;;4.47;2.17;;;;;;;13.80;71.76;101027.34;5044179;28;20186;-74
2022/05/23 05:32:19;;;;;;;3.63;2.20;;;;;;;13.92;69.57;101021.44;5035807;28;20249;-73
2022/05/23 05:34:56;;;;;;;4.40;1.97;;;;;;;14.02;69.39;101021.56;5011127;28;20185;-74
2022/05/23 05:37:31;;;;;;;3.57;1.87;;;;;;;14.11;69.32;101023.31;5014375;28;20265;-74
2022/05/23 05:40:00;;;;;;;4.27;2.20;;;;;;;14.28;69.53;101021.78;5009082;28;20612;-73
2022/05/23 05:42:34;;;;;;;3.63;1.77;;;;;;;14.29;68.00;101011.50;5009831;28;20195;-73
2022/05/23 05:45:10;;;;;;;5.50;2.13;;;;;;;14.47;67.43;101015.91;4993540;28;20190;-74
2022/05/23 05:47:38;;;;;;;5.10;1.87;;;;;;;14.61;67.67;101002.25;5009280;28;20183;-74
2022/05/23 05:50:09;;;;;;;4.50;2.07;;;;;;;14.75;66.76;101003.19;5008660;28;20672;-74
2022/05/23 05:52:48;;;;;;;1.80;1.60;;;;;;;14.80;66.03;100995.47;5009061;28;20194;-73
2022/05/23 05:57:50;;;;;;;2.67;1.67;;;;;;;15.26;65.30;100997.38;5006793;26;20225;-74
2022/05/23 06:00:16;;;;;;;4.87;2.17;;;;;;;15.17;64.84;100994.75;5028959;28;20201;-73
2022/05/23 06:02:44;;;;;;;4.63;1.93;;;;;;;15.35;65.01;100984.50;5029961;28;20190;-74
2022/05/23 06:05:13;;;;;;;5.27;1.93;;;;;;;15.54;64.26;100987.16;5029148;28;20195;-74
2022/05/23 06:11:23;;;;;;;2.73;1.53;;;;;;;15.90;64.14;100979.44;5035954;28;20218;-73
2022/05/23 06:13:47;;;;;;;2.23;1.63;;;;;;;15.94;63.51;100978.53;5033895;28;20214;-73
2022/05/23 06:16:34;;;;;;;3.67;1.80;;;;;;;16.13;62.50;100971.66;5043877;28;20742;-73
2022/05/23 06:19:03;;;;;;;3.83;1.80;;;;;;;16.20;62.64;100968.19;5028071;28;20288;-73
2022/05/23 06:21:32;;;;;;;4.60;2.17;;;;;;;16.38;62.16;100965.56;5028040;28;20659;-73
2022/05/23 06:23:58;;;;;;;2.93;1.70;;;;;;;16.22;62.64;100957.03;5028416;28;20190;-73
2022/05/23 06:26:44;;;;;;;2.77;1.90;;;;;;;16.55;61.74;100948.34;5017199;28;20207;-73
2022/05/23 06:29:45;;;;;;;5.97;1.90;;;;;;;16.81;61.48;100928.41;5008804;28;20659;-73
2022/05/23 06:32:27;;;;;;;3.53;1.50;;;;;;;17.04;60.63;100932.59;5008510;28;20195;-73
2022/05/23 06:34:53;;;;;;;3.50;2.00;;;;;;;16.53;61.50;100938.00;5008657;28;20202;-73
2022/05/23 06:37:20;;;;;;;3.37;1.73;;;;;;;16.56;63.37;100931.94;5007360;28;20218;-73
2022/05/23 06:39:46;;;;;;;4.73;1.87;;;;;;;16.77;61.76;100927.56;5008294;28;20194;-72
2022/05/23 06:42:50;;;;;;;5.07;2.07;;;;;;;17.07;61.33;100918.78;4967869;28;20188;-73
2022/05/23 06:45:38;;;;;;;3.80;2.00;;;;;;;17.18;60.58;100924.78;4968321;28;20748;-73
2022/05/23 06:48:31;;;;;;;3.10;2.00;;;;;;;17.27;60.79;100925.56;5000640;28;20195;-73
2022/05/23 06:51:00;;;;;;;3.83;1.90;;;;;;;16.90;60.37;100921.47;5030754;28;20261;-73
2022/05/23 06:53:36;;;;;;;3.43;1.70;;;;;;;17.50;60.63;100923.69;5018949;28;20186;-73
2022/05/23 06:56:17;;;;;;;4.27;1.70;;;;;;;17.75;60.01;100921.78;5028438;28;20391;-73
2022/05/23 06:58:44;;;;;;;3.10;2.00;;;;;;;17.49;58.77;100921.13;5031926;28;20194;-73
2022/05/23 07:01:23;;;;;;;3.27;1.93;;;;;;;17.57;59.95;100924.50;5014594;28;20185;-73
2022/05/23 07:04:07;;;;;;;3.60;1.73;;;;;;;17.66;59.84;100908.91;5038313;28;20306;-73
2022/05/23 07:12:22;;;;;;;5.97;2.10;;;;;;;18.34;59.16;100909.13;5027411;28;20193;-73
2022/05/23 07:14:51;;;;;;;3.47;1.80;;;;;;;18.46;57.26;100909.84;5036004;28;20631;-73
2022/05/23 07:17:17;;;;;;;5.80;2.07;;;;;;;18.65;57.18;100900.13;5046884;28;20683;-73
2022/05/23 07:20:01;;;;;;;7.47;2.40;;;;;;;18.40;56.60;100901.28;5047959;28;20208;-73
2022/05/23 07:22:27;;;;;;;4.70;1.80;;;;;;;19.00;56.17;100906.56;5030616;28;20204;-73
2022/05/23 07:24:55;;;;;;;4.07;1.80;;;;;;;19.34;56.08;100900.03;5047802;28;20182;-73
2022/05/23 07:27:26;;;;;;;3.90;1.60;;;;;;;19.63;55.73;100897.81;5047571;28;20678;-73
2022/05/23 07:29:53;;;;;;;3.07;1.63;;;;;;;19.44;55.24;100893.78;5045729;28;20678;-73
2022/05/23 07:32:18;;;;;;;4.30;1.63;;;;;;;19.56;53.49;100891.00;5027735;28;20190;-74
2022/05/23 07:34:44;;;;;;;2.53;1.40;;;;;;;19.82;54.57;100896.66;5027195;28;20201;-74
2022/05/23 07:37:10;;;;;;;2.93;1.90;;;;;;;20.18;54.75;100896.00;5027556;28;20818;-73
2022/05/23 07:39:39;;;;;;;2.90;1.70;;;;;;;20.26;53.77;100888.91;5027259;28;20190;-73
2022/05/23 07:42:15;;;;;;;3.53;1.83;;;;;;;20.35;53.04;100886.13;5029555;28;20558;-73
2022/05/23 07:44:41;;;;;;;2.93;1.53;;;;;;;20.47;51.86;100877.22;5027786;28;20202;-73
2022/05/23 07:47:14;;;;;;;3.07;1.70;;;;;;;20.75;51.86;100866.22;5033075;23;20230;-73
2022/05/23 07:49:50;;;;;;;4.27;1.60;;;;;;;20.61;50.90;100860.44;5029651;28;20652;-73
2022/05/23 07:52:16;;;;;;;2.53;1.47;;;;;;;21.18;52.14;100847.88;5047869;28;20182;-73
2022/05/23 08:00:31;;;;;;;4.57;1.30;;;;;;;21.25;51.14;100842.50;5002355;28;20210;-74
2022/05/23 08:00:35;;;;;;;2.80;1.40;;;;;;;21.49;49.93;100836.69;5011079;28;20187;-74
2022/05/23 08:03:17;;;;;;;3.57;1.60;;;;;;;21.45;51.12;100836.78;4995728;28;20179;-74
2022/05/23 08:05:46;;;;;;;4.17;1.43;;;;;;;21.57;48.90;100824.31;5011063;28;20222;-74
2022/05/23 08:08:14;;;;;;;4.47;1.43;;;;;;;21.90;48.71;100833.91;5010516;28;20608;-74
2022/05/23 08:10:39;;;;;;;3.40;1.30;;;;;;;21.80;47.47;100834.19;5011119;28;20176;-73
2022/05/23 08:13:11;;;;;;;3.13;1.50;;;;;;;21.91;47.41;100824.31;4994776;28;20293;-73
2022/05/23 08:15:39;;;;;;;3.13;1.30;;;;;;;22.00;48.17;100824.91;5010617;28;20260;-73
2022/05/23 08:18:10;;;;;;;2.33;1.50;;;;;;;21.99;47.59;100827.56;5027395;28;20191;-73
2022/05/23 08:20:41;;;;;;;3.27;1.40;;;;;;;22.65;47.56;100812.59;5010464;28;20175;-73
2022/05/23 08:23:06;;;;;;;3.57;1.43;;;;;;;22.52;44.52;100823.47;5011101;28;20533;-73
2022/05/23 08:25:44;;;;;;;3.33;1.13;;;;;;;23.09;45.82;100801.63;5027069;28;20214;-74
2022/05/23 08:28:11;;;;;;;2.93;1.17;;;;;;;22.42;43.59;100815.00;5007887;28;20191;-73
2022/05/23 08:30:38;;;;;;;2.00;1.23;;;;;;;22.60;44.85;100808.44;5007208;28;20187;-73
2022/05/23 08:33:17;;;;;;;3.90;1.40;;;;;;;23.16;43.54;100800.50;5007617;28;20184;-73
2022/05/23 08:35:42;;;;;;;2.27;1.30;;;;;;;23.28;43.69;100791.44;5007983;28;20199;-73
2022/05/23 08:38:09;;;;;;;2.13;1.20;;;;;;;22.95;42.54;100797.75;5006117;28;20191;-73
2022/05/23 08:41:16;;;;;;;1.60;1.10;;;;;;;23.71;41.97;100791.72;5009861;28;20602;-74
2022/05/23 08:44:16;;;;;;;3.53;1.30;;;;;;;23.60;41.38;100791.22;5016139;28;20616;-75
2022/05/23 08:47:05;;;;;;;3.80;1.57;;;;;;;23.57;41.64;100796.56;5029525;28;20217;-74
2022/05/23 08:49:42;;;;;;;5.87;1.57;;;;;;;23.70;41.29;100783.00;5030603;28;20188;-74
2022/05/23 08:52:13;;;;;;;2.40;1.30;;;;;;;23.65;40.90;100784.06;5012699;28;20241;-74
2022/05/23 08:54:50;;;;;;;2.70;1.40;;;;;;;23.77;40.73;100781.88;5024625;28;20186;-73
2022/05/23 08:57:50;;;;;;;1.70;1.47;;;;;;;24.08;41.05;100779.06;5010778;28;20227;-74
2022/05/23 09:00:23;;;;;;;4.65;1.38;;;;;;;23.89;41.02;100777.97;5025439;28;20264;-74
2022/05/23 09:02:55;;;;;;;2.43;1.33;;;;;;;23.77;40.28;100784.50;5009518;28;20185;-74
2022/05/23 09:05:32;;;;;;;3.20;1.70;;;;;;;24.04;39.97;100774.84;5009091;28;20221;-75
2022/05/23 09:08:05;;;;;;;3.63;1.43;;;;;;;24.49;40.46;100776.56;5010721;28;20657;-75
2022/05/23 09:10:48;;;;;;;4.45;1.45;;;;;;;24.48;38.92;100782.72;5010855;28;20259;-73
2022/05/23 09:13:16;;;;;;;3.00;1.60;;;;;;;23.59;39.97;100782.53;5011221;28;20582;-74
2022/05/23 09:15:43;;;;;;;5.50;1.70;;;;;;;23.43;40.94;100773.50;4993154;28;20286;-74
2022/05/23 09:18:17;;;;;;;2.87;1.70;;;;;;;23.65;40.81;100773.59;5014641;28;20679;-73
2022/05/23 09:20:47;;;;;;;2.57;1.40;;;;;;;23.97;40.54;100774.19;5010721;28;20219;-74
2022/05/23 09:23:28;;;;;;;3.72;2.13;;;;;;;24.36;39.59;100758.78;5010321;28;20649;-74
2022/05/23 09:25:55;;;;;;;5.03;1.80;;;;;;;24.16;38.24;100753.41;5010566;28;20249;-74
2022/05/23 09:28:31;;;;;;;2.60;1.50;;;;;;;23.99;39.38;100756.66;5009791;28;20191;-74
2022/05/23 09:31:10;;;;;;;2.47;1.70;;;;;;;24.29;39.73;100760.78;5010022;28;20621;-73
2022/05/23 09:33:45;;;;;;;6.00;2.00;;;;;;;24.41;38.36;100756.84;5009126;28;20202;-73
2022/05/23 09:36:18;;;;;;;3.10;1.83;;;;;;;24.12;38.14;100746.63;5009962;28;20249;-73
2022/05/23 09:39:04;;;;;;;3.93;1.87;;;;;;;24.28;38.24;100742.50;5010318;28;20181;-73
2022/05/23 09:47:45;;;;;;;3.60;2.10;;;;;;;24.21;39.31;100722.72;5009144;28;20211;-74
2022/05/23 09:50:32;;;;;;;4.23;2.03;;;;;;;24.14;38.96;100714.25;5009062;28;20175;-74
2022/05/23 09:52:59;;;;;;;4.07;2.00;;;;;;;24.82;37.90;100712.38;5009219;28;20226;-74
2022/05/23 09:55:33;;;;;;;5.18;1.95;;;;;;;24.92;37.62;100715.50;5010128;28;20206;-74
2022/05/23 09:58:06;;;;;;;5.18;2.00;;;;;;;24.74;38.82;100703.16;5008390;28;20655;-74
2022/05/23 10:00:40;;;;;;;5.32;2.00;;;;;;;24.76;38.53;100707.41;5010042;28;20191;-74
2022/05/23 10:03:19;;;;;;;3.25;2.28;;;;;;;24.60;38.21;100708.94;5041563;28;20236;-74
2022/05/23 10:05:53;;;;;;;4.85;2.10;;;;;;;24.77;37.17;100703.03;5010060;28;20210;-74
2022/05/23 10:08:34;;;;;;;4.28;2.30;;;;;;;24.91;37.79;100698.91;5008048;28;20218;-74
2022/05/23 10:11:19;;;;;;;3.80;1.92;;;;;;;25.03;38.59;100693.16;5008396;28;20191;-74
2022/05/23 10:13:50;;;;;;;6.07;2.20;;;;;;;23.75;38.81;100702.59;5009708;28;20183;-73
2022/05/23 10:16:26;;;;;;;4.53;1.90;;;;;;;24.33;37.84;100696.91;5009425;28;20215;-73
2022/05/23 10:19:03;;;;;;;4.10;1.98;;;;;;;24.86;36.80;100679.91;5009656;28;20503;-73
2022/05/23 10:21:34;;;;;;;3.50;2.08;;;;;;;25.07;37.10;100683.41;5009263;28;20857;-73
2022/05/23 10:24:18;;;;;;;5.38;2.25;;;;;;;25.29;37.91;100687.72;5009786;28;20498;-73
2022/05/23 10:26:56;;;;;;;4.93;1.92;;;;;;;25.38;38.13;100689.94;5007706;28;20257;-73
2022/05/23 10:29:39;;;;;;;4.15;1.88;;;;;;;24.90;36.88;100683.25;5008099;28;20194;-72
2022/05/23 10:32:08;;;;;;;4.82;2.30;;;;;;;24.91;37.48;100675.31;5024377;28;20257;-73
2022/05/23 10:34:37;;;;;;;2.42;2.00;;;;;;;25.32;37.91;100671.00;5009826;28;20211;-73
2022/05/23 10:37:06;;;;;;;6.07;2.40;;;;;;;25.47;36.41;100671.13;5009014;28;20295;-74
2022/05/23 10:42:41;;;;;;;3.97;1.80;;;;;;;25.48;36.67;100658.88;5029600;28;20261;-73
2022/05/23 10:45:26;;;;;;;3.33;2.13;;;;;;;26.17;35.05;100656.56;4990287;28;20325;-73
2022/05/23 10:48:08;;;;;;;3.90;1.80;;;;;;;25.83;35.46;100653.75;4989982;28;20704;-73
2022/05/23 10:50:49;;;;;;;4.90;2.05;;;;;;;26.20;34.87;100648.50;5007435;28;20642;-73
2022/05/23 10:53:39;;;;;;;4.72;1.83;;;;;;;25.40;35.97;100650.50;5009652;28;20195;-73
2022/05/23 10:56:13;;;;;;;3.40;1.55;;;;;;;26.32;34.94;100644.44;5008779;28;20207;-73
2022/05/23 10:58:42;;;;;;;6.25;2.05;;;;;;;26.73;34.65;100627.53;5009663;28;20218;-73
2022/05/23 11:01:33;;;;;;;5.90;2.15;;;;;;;27.00;34.63;100634.03;5008956;28;20191;-73
2022/05/23 11:04:16;;;;;;;3.95;1.90;;;;;;;26.73;34.28;100635.41;5009705;28;20186;-73
2022/05/23 11:07:03;;;;;;;6.05;1.90;;;;;;;26.61;34.37;100623.72;5008753;28;20199;-73
2022/05/23 11:09:56;;;;;;;7.97;1.80;;;;;;;26.81;34.66;100613.09;5009335;28;20183;-73
2022/05/23 11:12:43;;;;;;;3.78;1.80;;;;;;;26.90;33.48;100611.75;5009144;28;20175;-73
2022/05/23 11:15:27;;;;;;;4.05;1.73;;;;;;;26.27;34.04;100602.66;5008336;28;20245;-73
2022/05/23 11:18:27;;;;;;;2.95;1.63;;;;;;;27.10;33.40;100601.91;5007941;28;20215;-73
2022/05/23 11:20:57;;;;;;;3.72;1.52;;;;;;;27.18;34.55;100594.53;5009405;28;20210;-73
2022/05/23 11:23:45;;;;;;;3.40;1.67;;;;;;;26.25;34.21;100599.22;5007723;28;20262;-73
2022/05/23 11:26:17;;;;;;;2.80;1.70;;;;;;;26.06;34.75;100598.41;5013374;28;20623;-73
2022/05/23 11:34:30;;;;;;;3.50;1.90;;;;;;;26.54;34.27;100587.31;5012861;28;20202;-73
2022/05/23 11:39:54;;;;;;;4.00;1.98;;;;;;;25.58;35.31;100586.72;5012989;28;20203;-73
2022/05/23 11:42:30;;;;;;;3.40;1.90;;;;;;;26.62;35.62;100575.50;5011865;28;20561;-73
2022/05/23 11:47:57;;;;;;;3.85;1.88;;;;;;;26.59;35.82;100564.31;5008477;28;20198;-73
2022/05/23 11:50:30;;;;;;;4.30;1.73;;;;;;;26.74;35.07;100572.25;4991904;28;20586;-73
2022/05/23 11:53:08;;;;;;;4.35;1.90;;;;;;;26.73;34.84;100560.06;5004171;28;20240;-73
2022/05/23 11:56:01;;;;;;;5.05;1.77;;;;;;;27.20;34.62;100541.81;5012680;28;20213;-73
2022/05/23 11:58:39;;;;;;;3.08;1.83;;;;;;;27.50;34.08;100534.91;5007964;28;20188;-73
2022/05/23 12:01:14;;;;;;;3.35;1.83;;;;;;;27.36;33.84;100526.91;4994022;28;20191;-74
2022/05/23 12:03:56;;;;;;;3.00;1.67;;;;;;;26.83;35.08;100519.22;5011118;28;20195;-73
2022/05/23 12:06:24;;;;;;;2.50;1.70;;;;;;;27.11;34.59;100515.97;5012676;28;20207;-73
2022/05/23 12:08:59;;;;;;;3.95;2.10;;;;;;;26.07;35.39;100513.47;5010652;28;20688;-74
2022/05/23 12:11:29;;;;;;;4.20;2.17;;;;;;;26.79;35.56;100501.91;5012420;28;20282;-73
2022/05/23 12:14:12;;;;;;;3.80;1.60;;;;;;;26.19;35.65;100506.75;5012431;28;20270;-73
2022/05/23 12:16:44;;;;;;;2.65;1.70;;;;;;;26.28;35.23;100506.31;5012076;28;20687;-75
2022/05/23 12:19:40;;;;;;;4.60;1.88;;;;;;;26.44;35.71;100505.44;5011136;28;20687;-74
2022/05/23 12:22:22;;;;;;;3.92;1.80;;;;;;;27.00;35.82;100476.25;5006986;28;20207;-74
2022/05/23 12:25:09;;;;;;;4.35;1.77;;;;;;;26.82;35.94;100485.97;5012397;28;20183;-74
2022/05/23 12:28:08;;;;;;;2.95;1.70;;;;;;;27.19;34.88;100484.88;5010595;28;20537;-74
2022/05/23 12:30:42;;;;;;;3.78;1.75;;;;;;;27.00;35.24;100481.50;5010524;28;20191;-73
2022/05/23 12:33:12;;;;;;;3.05;2.00;;;;;;;27.53;35.79;100479.47;4994226;28;20225;-74
2022/05/23 12:35:40;;;;;;;3.67;1.88;;;;;;;27.24;33.90;100473.19;5010998;28;20227;-74
2022/05/23 12:38:43;;;;;;;4.05;2.15;;;;;;;27.37;33.68;100473.34;5011647;28;20199;-74
2022/05/23 12:41:27;;;;;;;3.63;2.00;;;;;;;27.42;33.20;100473.94;5010568;28;20559;-74
2022/05/23 12:44:14;;;;;;;3.67;2.00;;;;;;;27.65;34.38;100463.84;5011505;28;20194;-74